sensor_id;sensor_type;location;lat;lon;timestamp;pressure;altitude;pressure_sealevel;temperature;humidity
60832;BME280;46665;51.558;-0.448;2023-04-22T00:01:47;100247.75;;;3.65;100.00
60832;BME280;46665;51.558;-0.448;2023-04-22T00:04:12;100264.88;;;3.76;100.00
60832;BME280;46665;51.558;-0.448;2023-04-22T00:06:39;100268.28;;;3.71;100.00
60832;BME280;46665;51.558;-0.448;2023-04-22T00:09:04;100262.25;;;3.64;100.00
60832;BME280;46665;51.558;-0.448;2023-04-22T00:11:30;100252.78;;;3.61;100.00
60832;BME280;46665;51.558;-0.448;2023-04-22T00:13:55;100244.63;;;3.56;100.00
60832;BME280;46665;51.558;-0.448;2023-04-22T00:16:21;100241.38;;;3.54;100.00
60832;BME280;46665;51.558;-0.448;2023-04-22T00:18:46;100234.59;;;3.52;100.00
60832;BME280;46665;51.558;-0.448;2023-04-22T00:21:11;100239.19;;;3.51;100.00
60832;BME280;46665;51.558;-0.448;2023-04-22T00:23:37;100237.78;;;3.48;100.00
60832;BME280;46665;51.558;-0.448;2023-04-22T00:26:02;100223.22;;;3.44;100.00
60832;BME280;46665;51.558;-0.448;2023-04-22T00:28:28;100226.22;;;3.48;100.00
60832;BME280;46665;51.558;-0.448;2023-04-22T00:30:53;100214.88;;;3.46;100.00
60832;BME280;46665;51.558;-0.448;2023-04-22T00:33:19;100226.00;;;3.50;100.00
60832;BME280;46665;51.558;-0.448;2023-04-22T00:35:47;100222.22;;;3.51;100.00
60832;BME280;46665;51.558;-0.448;2023-04-22T00:38:12;100221.66;;;3.48;100.00
60832;BME280;46665;51.558;-0.448;2023-04-22T00:40:38;100211.38;;;3.45;100.00
60832;BME280;46665;51.558;-0.448;2023-04-22T00:43:03;100218.56;;;3.40;100.00
60832;BME280;46665;51.558;-0.448;2023-04-22T00:45:30;100210.88;;;3.32;100.00
60832;BME280;46665;51.558;-0.448;2023-04-22T00:47:58;100210.78;;;3.26;100.00
60832;BME280;46665;51.558;-0.448;2023-04-22T00:50:24;100199.94;;;3.21;100.00
60832;BME280;46665;51.558;-0.448;2023-04-22T00:52:50;100199.63;;;3.18;100.00
60832;BME280;46665;51.558;-0.448;2023-04-22T00:55:15;100191.00;;;3.16;100.00
60832;BME280;46665;51.558;-0.448;2023-04-22T00:57:41;100199.63;;;3.18;100.00
60832;BME280;46665;51.558;-0.448;2023-04-22T01:00:07;100184.00;;;3.15;100.00
60832;BME280;46665;51.558;-0.448;2023-04-22T01:02:35;100181.03;;;3.16;100.00
60832;BME280;46665;51.558;-0.448;2023-04-22T01:05:02;100180.00;;;3.17;100.00
60832;BME280;46665;51.558;-0.448;2023-04-22T01:07:28;100172.84;;;3.23;100.00
60832;BME280;46665;51.558;-0.448;2023-04-22T01:09:53;100180.09;;;3.22;100.00
60832;BME280;46665;51.558;-0.448;2023-04-22T01:12:18;100173.91;;;3.22;100.00
60832;BME280;46665;51.558;-0.448;2023-04-22T01:14:44;100181.38;;;3.20;100.00
60832;BME280;46665;51.558;-0.448;2023-04-22T01:17:10;100169.97;;;3.13;100.00
60832;BME280;46665;51.558;-0.448;2023-04-22T01:19:36;100176.47;;;3.00;100.00
60832;BME280;46665;51.558;-0.448;2023-04-22T01:22:02;100165.78;;;2.88;100.00
60832;BME280;46665;51.558;-0.448;2023-04-22T01:24:28;100175.13;;;2.86;100.00
60832;BME280;46665;51.558;-0.448;2023-04-22T01:26:53;100168.72;;;2.87;100.00
60832;BME280;46665;51.558;-0.448;2023-04-22T01:29:19;100165.78;;;2.88;100.00
60832;BME280;46665;51.558;-0.448;2023-04-22T01:31:45;100163.94;;;2.89;100.00
60832;BME280;46665;51.558;-0.448;2023-04-22T01:34:11;100157.72;;;2.88;100.00
60832;BME280;46665;51.558;-0.448;2023-04-22T01:36:37;100151.44;;;2.82;100.00
60832;BME280;46665;51.558;-0.448;2023-04-22T01:39:02;100150.38;;;2.83;100.00
60832;BME280;46665;51.558;-0.448;2023-04-22T01:41:29;100159.19;;;2.79;100.00
60832;BME280;46665;51.558;-0.448;2023-04-22T01:43:56;100150.19;;;2.73;100.00
60832;BME280;46665;51.558;-0.448;2023-04-22T01:46:22;100152.34;;;2.71;100.00
60832;BME280;46665;51.558;-0.448;2023-04-22T01:48:47;100145.00;;;2.67;100.00
60832;BME280;46665;51.558;-0.448;2023-04-22T01:51:18;100161.59;;;2.64;100.00
60832;BME280;46665;51.558;-0.448;2023-04-22T01:53:50;100149.50;;;2.49;100.00
60832;BME280;46665;51.558;-0.448;2023-04-22T01:56:16;100158.28;;;2.45;100.00
60832;BME280;46665;51.558;-0.448;2023-04-22T01:58:42;100159.56;;;2.42;100.00
60832;BME280;46665;51.558;-0.448;2023-04-22T02:01:11;100160.03;;;2.39;100.00
60832;BME280;46665;51.558;-0.448;2023-04-22T02:03:37;100163.53;;;2.39;100.00
60832;BME280;46665;51.558;-0.448;2023-04-22T02:06:02;100161.44;;;2.42;100.00
60832;BME280;46665;51.558;-0.448;2023-04-22T02:08:28;100155.25;;;2.41;100.00
60832;BME280;46665;51.558;-0.448;2023-04-22T02:10:53;100160.63;;;2.41;100.00
60832;BME280;46665;51.558;-0.448;2023-04-22T02:13:19;100148.00;;;2.42;100.00
60832;BME280;46665;51.558;-0.448;2023-04-22T02:15:44;100149.78;;;2.36;100.00
60832;BME280;46665;51.558;-0.448;2023-04-22T02:18:10;100148.31;;;2.28;100.00
60832;BME280;46665;51.558;-0.448;2023-04-22T02:20:35;100153.31;;;2.25;100.00
60832;BME280;46665;51.558;-0.448;2023-04-22T02:23:02;100160.78;;;2.23;100.00
60832;BME280;46665;51.558;-0.448;2023-04-22T02:25:27;100154.84;;;2.21;100.00
60832;BME280;46665;51.558;-0.448;2023-04-22T02:27:53;100156.69;;;2.20;100.00
60832;BME280;46665;51.558;-0.448;2023-04-22T02:30:20;100160.56;;;2.24;100.00
60832;BME280;46665;51.558;-0.448;2023-04-22T02:32:46;100156.47;;;2.22;100.00
60832;BME280;46665;51.558;-0.448;2023-04-22T02:35:11;100143.53;;;2.19;100.00
60832;BME280;46665;51.558;-0.448;2023-04-22T02:37:37;100146.94;;;2.14;100.00
60832;BME280;46665;51.558;-0.448;2023-04-22T02:40:03;100150.41;;;2.14;100.00
60832;BME280;46665;51.558;-0.448;2023-04-22T02:42:29;100141.56;;;2.14;100.00
60832;BME280;46665;51.558;-0.448;2023-04-22T02:44:54;100144.47;;;2.12;100.00
60832;BME280;46665;51.558;-0.448;2023-04-22T02:47:20;100133.72;;;2.12;100.00
60832;BME280;46665;51.558;-0.448;2023-04-22T02:49:46;100136.19;;;2.14;100.00
60832;BME280;46665;51.558;-0.448;2023-04-22T02:52:11;100133.03;;;2.17;100.00
60832;BME280;46665;51.558;-0.448;2023-04-22T02:54:36;100121.69;;;2.15;100.00
60832;BME280;46665;51.558;-0.448;2023-04-22T02:57:02;100119.03;;;2.15;100.00
60832;BME280;46665;51.558;-0.448;2023-04-22T02:59:27;100127.56;;;2.12;100.00
60832;BME280;46665;51.558;-0.448;2023-04-22T03:01:53;100109.53;;;1.95;100.00
60832;BME280;46665;51.558;-0.448;2023-04-22T03:04:18;100107.06;;;1.94;100.00
60832;BME280;46665;51.558;-0.448;2023-04-22T03:06:47;100117.31;;;1.97;100.00
60832;BME280;46665;51.558;-0.448;2023-04-22T03:09:12;100117.31;;;1.97;100.00
60832;BME280;46665;51.558;-0.448;2023-04-22T03:11:38;100102.88;;;1.98;100.00
60832;BME280;46665;51.558;-0.448;2023-04-22T03:14:03;100111.59;;;2.05;100.00
60832;BME280;46665;51.558;-0.448;2023-04-22T03:16:29;100107.06;;;2.06;100.00
60832;BME280;46665;51.558;-0.448;2023-04-22T03:18:54;100107.16;;;2.11;100.00
60832;BME280;46665;51.558;-0.448;2023-04-22T03:21:20;100092.09;;;2.10;100.00
60832;BME280;46665;51.558;-0.448;2023-04-22T03:23:45;100095.22;;;2.19;100.00
60832;BME280;46665;51.558;-0.448;2023-04-22T03:26:10;100090.16;;;2.22;100.00
60832;BME280;46665;51.558;-0.448;2023-04-22T03:28:37;100078.94;;;2.25;100.00
60832;BME280;46665;51.558;-0.448;2023-04-22T03:31:03;100075.22;;;2.26;100.00
60832;BME280;46665;51.558;-0.448;2023-04-22T03:33:28;100075.03;;;2.16;100.00
60832;BME280;46665;51.558;-0.448;2023-04-22T03:35:54;100066.88;;;2.11;100.00
60832;BME280;46665;51.558;-0.448;2023-04-22T03:38:19;100064.69;;;2.08;100.00
60832;BME280;46665;51.558;-0.448;2023-04-22T03:40:44;100065.13;;;2.05;100.00
60832;BME280;46665;51.558;-0.448;2023-04-22T03:43:10;100072.47;;;2.09;100.00
60832;BME280;46665;51.558;-0.448;2023-04-22T03:45:35;100065.50;;;2.08;100.00
60832;BME280;46665;51.558;-0.448;2023-04-22T03:48:01;100064.22;;;2.11;100.00
60832;BME280;46665;51.558;-0.448;2023-04-22T03:50:26;100077.38;;;2.12;100.00
60832;BME280;46665;51.558;-0.448;2023-04-22T03:52:51;100085.91;;;2.09;100.00
60832;BME280;46665;51.558;-0.448;2023-04-22T03:55:17;100080.44;;;2.04;100.00
60832;BME280;46665;51.558;-0.448;2023-04-22T03:57:42;100069.03;;;1.97;100.00
60832;BME280;46665;51.558;-0.448;2023-04-22T04:00:08;100069.88;;;1.86;100.00
60832;BME280;46665;51.558;-0.448;2023-04-22T04:02:34;100064.75;;;1.84;100.00
60832;BME280;46665;51.558;-0.448;2023-04-22T04:04:59;100069.53;;;1.82;100.00
60832;BME280;46665;51.558;-0.448;2023-04-22T04:07:26;100067.56;;;1.78;100.00
60832;BME280;46665;51.558;-0.448;2023-04-22T04:09:51;100057.56;;;1.73;100.00
60832;BME280;46665;51.558;-0.448;2023-04-22T04:12:16;100057.09;;;1.64;100.00
60832;BME280;46665;51.558;-0.448;2023-04-22T04:14:42;100058.84;;;1.59;100.00
60832;BME280;46665;51.558;-0.448;2023-04-22T04:17:07;100048.03;;;1.54;100.00
60832;BME280;46665;51.558;-0.448;2023-04-22T04:19:38;100047.00;;;1.55;100.00
60832;BME280;46665;51.558;-0.448;2023-04-22T04:22:04;100046.03;;;1.49;100.00
60832;BME280;46665;51.558;-0.448;2023-04-22T04:24:29;100044.31;;;1.55;100.00
60832;BME280;46665;51.558;-0.448;2023-04-22T04:26:55;100042.44;;;1.55;100.00
60832;BME280;46665;51.558;-0.448;2023-04-22T04:29:22;100045.81;;;1.62;100.00
60832;BME280;46665;51.558;-0.448;2023-04-22T04:31:48;100048.72;;;1.61;100.00
60832;BME280;46665;51.558;-0.448;2023-04-22T04:34:13;100038.09;;;1.66;100.00
60832;BME280;46665;51.558;-0.448;2023-04-22T04:36:39;100046.72;;;1.68;100.00
60832;BME280;46665;51.558;-0.448;2023-04-22T04:39:05;100048.00;;;1.65;100.00
60832;BME280;46665;51.558;-0.448;2023-04-22T04:41:30;100045.22;;;1.60;100.00
60832;BME280;46665;51.558;-0.448;2023-04-22T04:43:57;100043.13;;;1.50;100.00
60832;BME280;46665;51.558;-0.448;2023-04-22T04:46:25;100038.25;;;1.47;100.00
60832;BME280;46665;51.558;-0.448;2023-04-22T04:48:50;100036.59;;;1.46;100.00
60832;BME280;46665;51.558;-0.448;2023-04-22T04:51:18;100043.34;;;1.49;100.00
60832;BME280;46665;51.558;-0.448;2023-04-22T04:53:44;100044.75;;;1.51;100.00
60832;BME280;46665;51.558;-0.448;2023-04-22T04:56:09;100048.72;;;1.61;100.00
60832;BME280;46665;51.558;-0.448;2023-04-22T04:58:35;100048.22;;;1.64;100.00
60832;BME280;46665;51.558;-0.448;2023-04-22T05:01:00;100059.16;;;1.74;100.00
60832;BME280;46665;51.558;-0.448;2023-04-22T05:03:25;100044.00;;;1.80;100.00
60832;BME280;46665;51.558;-0.448;2023-04-22T05:05:51;100039.47;;;1.80;100.00
60832;BME280;46665;51.558;-0.448;2023-04-22T05:08:16;100046.44;;;1.81;100.00
60832;BME280;46665;51.558;-0.448;2023-04-22T05:10:42;100037.47;;;1.76;100.00
60832;BME280;46665;51.558;-0.448;2023-04-22T05:13:08;100031.75;;;1.72;100.00
60832;BME280;46665;51.558;-0.448;2023-04-22T05:15:34;100042.50;;;1.72;100.00
60832;BME280;46665;51.558;-0.448;2023-04-22T05:17:59;100044.81;;;1.80;100.00
60832;BME280;46665;51.558;-0.448;2023-04-22T05:20:26;100048.16;;;1.87;100.00
60832;BME280;46665;51.558;-0.448;2023-04-22T05:22:51;100042.25;;;1.85;100.00
60832;BME280;46665;51.558;-0.448;2023-04-22T05:25:17;100037.91;;;1.84;100.00
60832;BME280;46665;51.558;-0.448;2023-04-22T05:27:42;100042.25;;;1.85;100.00
60832;BME280;46665;51.558;-0.448;2023-04-22T05:30:08;100040.00;;;1.82;100.00
60832;BME280;46665;51.558;-0.448;2023-04-22T05:32:34;100036.63;;;1.87;100.00
60832;BME280;46665;51.558;-0.448;2023-04-22T05:34:59;100029.50;;;1.92;100.00
60832;BME280;46665;51.558;-0.448;2023-04-22T05:37:24;100030.75;;;2.02;100.00
60832;BME280;46665;51.558;-0.448;2023-04-22T05:39:50;100041.56;;;2.07;100.00
60832;BME280;46665;51.558;-0.448;2023-04-22T05:42:15;100041.56;;;2.07;100.00
60832;BME280;46665;51.558;-0.448;2023-04-22T05:44:41;100049.41;;;2.08;100.00
60832;BME280;46665;51.558;-0.448;2023-04-22T05:47:06;100050.06;;;2.15;100.00
60832;BME280;46665;51.558;-0.448;2023-04-22T05:49:31;100038.13;;;2.23;100.00
60832;BME280;46665;51.558;-0.448;2023-04-22T05:51:57;100045.31;;;2.34;100.00
60832;BME280;46665;51.558;-0.448;2023-04-22T05:54:22;100045.75;;;2.43;100.00
60832;BME280;46665;51.558;-0.448;2023-04-22T05:56:47;100065.66;;;2.47;100.00
60832;BME280;46665;51.558;-0.448;2023-04-22T05:59:13;100060.63;;;2.51;100.00
60832;BME280;46665;51.558;-0.448;2023-04-22T06:01:38;100069.34;;;2.58;100.00
60832;BME280;46665;51.558;-0.448;2023-04-22T06:04:04;100058.75;;;2.68;100.00
60832;BME280;46665;51.558;-0.448;2023-04-22T06:06:30;100055.44;;;2.78;100.00
60832;BME280;46665;51.558;-0.448;2023-04-22T06:08:56;100042.09;;;2.83;100.00
60832;BME280;46665;51.558;-0.448;2023-04-22T06:11:21;100046.00;;;2.92;100.00
60832;BME280;46665;51.558;-0.448;2023-04-22T06:13:47;100039.63;;;2.98;100.00
60832;BME280;46665;51.558;-0.448;2023-04-22T06:16:12;100040.84;;;3.08;100.00
60832;BME280;46665;51.558;-0.448;2023-04-22T06:18:38;100030.41;;;3.11;100.00
60832;BME280;46665;51.558;-0.448;2023-04-22T06:21:03;100033.75;;;3.18;100.00
60832;BME280;46665;51.558;-0.448;2023-04-22T06:23:28;100035.78;;;3.28;100.00
60832;BME280;46665;51.558;-0.448;2023-04-22T06:25:54;100033.38;;;3.32;100.00
60832;BME280;46665;51.558;-0.448;2023-04-22T06:28:19;100027.84;;;3.38;100.00
60832;BME280;46665;51.558;-0.448;2023-04-22T06:30:45;100037.34;;;3.46;100.00
60832;BME280;46665;51.558;-0.448;2023-04-22T06:33:11;100047.69;;;3.54;100.00
60832;BME280;46665;51.558;-0.448;2023-04-22T06:35:36;100047.69;;;3.54;100.00
60832;BME280;46665;51.558;-0.448;2023-04-22T06:38:02;100060.72;;;3.62;100.00
60832;BME280;46665;51.558;-0.448;2023-04-22T06:40:27;100054.34;;;3.68;100.00
60832;BME280;46665;51.558;-0.448;2023-04-22T06:42:52;100058.69;;;3.75;100.00
60832;BME280;46665;51.558;-0.448;2023-04-22T06:45:18;100051.81;;;3.84;100.00
60832;BME280;46665;51.558;-0.448;2023-04-22T06:47:44;100039.56;;;3.93;100.00
60832;BME280;46665;51.558;-0.448;2023-04-22T06:50:10;100040.19;;;4.00;100.00
60832;BME280;46665;51.558;-0.448;2023-04-22T06:52:35;100041.28;;;4.04;100.00
60832;BME280;46665;51.558;-0.448;2023-04-22T06:55:02;100045.91;;;4.09;100.00
60832;BME280;46665;51.558;-0.448;2023-04-22T06:57:28;100038.66;;;4.09;100.00
60832;BME280;46665;51.558;-0.448;2023-04-22T06:59:54;100046.28;;;4.18;100.00
60832;BME280;46665;51.558;-0.448;2023-04-22T07:02:20;100048.59;;;4.31;100.00
60832;BME280;46665;51.558;-0.448;2023-04-22T07:04:45;100050.09;;;4.22;100.00
60832;BME280;46665;51.558;-0.448;2023-04-22T07:07:11;100058.78;;;4.29;100.00
60832;BME280;46665;51.558;-0.448;2023-04-22T07:09:36;100055.06;;;4.35;100.00
60832;BME280;46665;51.558;-0.448;2023-04-22T07:12:02;100047.59;;;4.42;100.00
60832;BME280;46665;51.558;-0.448;2023-04-22T07:14:28;100060.38;;;4.52;100.00
60832;BME280;46665;51.558;-0.448;2023-04-22T07:16:53;100069.34;;;4.63;100.00
60832;BME280;46665;51.558;-0.448;2023-04-22T07:19:19;100073.47;;;4.70;100.00
60832;BME280;46665;51.558;-0.448;2023-04-22T07:21:45;100064.41;;;4.82;100.00
60832;BME280;46665;51.558;-0.448;2023-04-22T07:24:10;100062.59;;;4.92;100.00
60832;BME280;46665;51.558;-0.448;2023-04-22T07:26:39;100074.28;;;5.03;100.00
60832;BME280;46665;51.558;-0.448;2023-04-22T07:29:04;100065.69;;;5.11;100.00
60832;BME280;46665;51.558;-0.448;2023-04-22T07:31:34;100067.94;;;5.19;100.00
60832;BME280;46665;51.558;-0.448;2023-04-22T07:33:59;100080.16;;;5.32;100.00
60832;BME280;46665;51.558;-0.448;2023-04-22T07:36:25;100072.66;;;5.39;100.00
60832;BME280;46665;51.558;-0.448;2023-04-22T07:38:50;100064.88;;;5.48;100.00
60832;BME280;46665;51.558;-0.448;2023-04-22T07:41:16;100062.19;;;5.53;100.00
60832;BME280;46665;51.558;-0.448;2023-04-22T07:43:41;100061.66;;;5.56;100.00
60832;BME280;46665;51.558;-0.448;2023-04-22T07:46:06;100060.66;;;5.68;100.00
60832;BME280;46665;51.558;-0.448;2023-04-22T07:48:32;100053.63;;;5.72;100.00
60832;BME280;46665;51.558;-0.448;2023-04-22T07:50:57;100064.47;;;5.77;100.00
60832;BME280;46665;51.558;-0.448;2023-04-22T07:53:23;100058.59;;;5.90;100.00
60832;BME280;46665;51.558;-0.448;2023-04-22T07:55:48;100062.44;;;5.99;100.00
60832;BME280;46665;51.558;-0.448;2023-04-22T07:58:15;100069.19;;;6.07;100.00
60832;BME280;46665;51.558;-0.448;2023-04-22T08:00:40;100060.06;;;6.13;100.00
60832;BME280;46665;51.558;-0.448;2023-04-22T08:03:05;100047.91;;;6.21;100.00
60832;BME280;46665;51.558;-0.448;2023-04-22T08:05:31;100056.59;;;6.28;100.00
60832;BME280;46665;51.558;-0.448;2023-04-22T08:07:56;100056.84;;;6.26;100.00
60832;BME280;46665;51.558;-0.448;2023-04-22T08:10:22;100053.03;;;6.27;100.00
60832;BME280;46665;51.558;-0.448;2023-04-22T08:12:47;100061.16;;;6.33;100.00
60832;BME280;46665;51.558;-0.448;2023-04-22T08:15:13;100064.16;;;6.41;100.00
60832;BME280;46665;51.558;-0.448;2023-04-22T08:17:38;100062.84;;;6.49;100.00
60832;BME280;46665;51.558;-0.448;2023-04-22T08:20:04;100060.94;;;6.60;100.00
60832;BME280;46665;51.558;-0.448;2023-04-22T08:22:30;100058.00;;;6.61;100.00
60832;BME280;46665;51.558;-0.448;2023-04-22T08:24:58;100059.91;;;6.76;100.00
60832;BME280;46665;51.558;-0.448;2023-04-22T08:27:23;100055.00;;;6.88;100.00
60832;BME280;46665;51.558;-0.448;2023-04-22T08:29:49;100043.91;;;6.95;100.00
60832;BME280;46665;51.558;-0.448;2023-04-22T08:32:15;100049.31;;;7.05;100.00
60832;BME280;46665;51.558;-0.448;2023-04-22T08:34:42;100053.66;;;7.01;100.00
60832;BME280;46665;51.558;-0.448;2023-04-22T08:37:07;100042.56;;;7.08;100.00
60832;BME280;46665;51.558;-0.448;2023-04-22T08:39:33;100053.91;;;7.15;100.00
60832;BME280;46665;51.558;-0.448;2023-04-22T08:41:58;100047.94;;;7.18;100.00
60832;BME280;46665;51.558;-0.448;2023-04-22T08:44:24;100039.81;;;7.23;100.00
60832;BME280;46665;51.558;-0.448;2023-04-22T08:46:50;100049.03;;;7.32;100.00
60832;BME280;46665;51.558;-0.448;2023-04-22T08:49:17;100040.34;;;7.35;100.00
60832;BME280;46665;51.558;-0.448;2023-04-22T08:51:43;100034.09;;;7.45;100.00
60832;BME280;46665;51.558;-0.448;2023-04-22T08:54:10;100037.31;;;7.57;100.00
60832;BME280;46665;51.558;-0.448;2023-04-22T08:56:36;100033.50;;;7.64;100.00
60832;BME280;46665;51.558;-0.448;2023-04-22T08:59:04;100029.13;;;7.78;100.00
60832;BME280;46665;51.558;-0.448;2023-04-22T09:01:30;100028.00;;;7.84;100.00
60832;BME280;46665;51.558;-0.448;2023-04-22T09:03:58;100040.66;;;7.99;100.00
60832;BME280;46665;51.558;-0.448;2023-04-22T09:06:24;100038.44;;;8.11;100.00
60832;BME280;46665;51.558;-0.448;2023-04-22T09:08:49;100034.31;;;8.24;100.00
60832;BME280;46665;51.558;-0.448;2023-04-22T09:11:16;100030.69;;;8.39;100.00
60832;BME280;46665;51.558;-0.448;2023-04-22T09:13:41;100030.69;;;8.44;100.00
60832;BME280;46665;51.558;-0.448;2023-04-22T09:16:07;100026.56;;;8.52;100.00
60832;BME280;46665;51.558;-0.448;2023-04-22T09:18:42;100028.13;;;8.58;100.00
60832;BME280;46665;51.558;-0.448;2023-04-22T09:21:10;100032.91;;;8.76;100.00
60832;BME280;46665;51.558;-0.448;2023-04-22T09:23:50;100021.28;;;9.00;100.00
60832;BME280;46665;51.558;-0.448;2023-04-22T09:26:19;100018.84;;;8.98;100.00
60832;BME280;46665;51.558;-0.448;2023-04-22T09:28:57;100008.72;;;9.09;100.00
60832;BME280;46665;51.558;-0.448;2023-04-22T09:31:24;100010.91;;;9.07;100.00
60832;BME280;46665;51.558;-0.448;2023-04-22T09:33:54;100016.56;;;9.10;100.00
60832;BME280;46665;51.558;-0.448;2023-04-22T09:36:21;100010.50;;;9.19;100.00
60832;BME280;46665;51.558;-0.448;2023-04-22T09:39:06;100004.69;;;9.30;100.00
60832;BME280;46665;51.558;-0.448;2023-04-22T09:41:37;99997.34;;;9.31;100.00
60832;BME280;46665;51.558;-0.448;2023-04-22T09:44:04;100004.22;;;9.23;100.00
60832;BME280;46665;51.558;-0.448;2023-04-22T09:46:32;100002.59;;;9.22;100.00
60832;BME280;46665;51.558;-0.448;2023-04-22T09:48:59;99994.53;;;9.17;100.00
60832;BME280;46665;51.558;-0.448;2023-04-22T09:51:25;100010.75;;;9.22;100.00
60832;BME280;46665;51.558;-0.448;2023-04-22T09:54:03;100004.53;;;9.22;100.00
60832;BME280;46665;51.558;-0.448;2023-04-22T09:56:50;100005.66;;;9.16;100.00
60832;BME280;46665;51.558;-0.448;2023-04-22T09:59:24;100010.00;;;9.17;100.00
60832;BME280;46665;51.558;-0.448;2023-04-22T10:01:52;99998.31;;;9.16;100.00
60832;BME280;46665;51.558;-0.448;2023-04-22T10:04:18;100012.13;;;9.20;100.00
60832;BME280;46665;51.558;-0.448;2023-04-22T10:06:48;100001.16;;;9.30;100.00
60832;BME280;46665;51.558;-0.448;2023-04-22T10:09:17;100001.81;;;9.22;100.00
60832;BME280;46665;51.558;-0.448;2023-04-22T10:11:43;100013.88;;;9.35;100.00
60832;BME280;46665;51.558;-0.448;2023-04-22T10:14:09;100009.00;;;9.31;98.59
60832;BME280;46665;51.558;-0.448;2023-04-22T10:16:37;100014.72;;;9.54;100.00
60832;BME280;46665;51.558;-0.448;2023-04-22T10:19:05;100000.41;;;9.72;99.43
60832;BME280;46665;51.558;-0.448;2023-04-22T10:21:31;100010.63;;;9.81;92.91
60832;BME280;46665;51.558;-0.448;2023-04-22T10:23:58;100016.44;;;9.93;94.83
60832;BME280;46665;51.558;-0.448;2023-04-22T10:26:48;100005.97;;;10.05;93.93
60832;BME280;46665;51.558;-0.448;2023-04-22T10:29:18;100010.16;;;10.16;91.69
60832;BME280;46665;51.558;-0.448;2023-04-22T10:31:55;100016.78;;;10.29;91.17
60832;BME280;46665;51.558;-0.448;2023-04-22T10:34:23;99999.41;;;10.25;87.26
60832;BME280;46665;51.558;-0.448;2023-04-22T10:37:10;100007.16;;;10.37;88.56
60832;BME280;46665;51.558;-0.448;2023-04-22T10:39:36;100011.84;;;10.50;86.89
60832;BME280;46665;51.558;-0.448;2023-04-22T10:47:09;100006.78;;;10.44;85.09
60832;BME280;46665;51.558;-0.448;2023-04-22T10:49:35;100005.69;;;10.45;84.25
60832;BME280;46665;51.558;-0.448;2023-04-22T10:52:01;100008.56;;;10.53;81.00
60832;BME280;46665;51.558;-0.448;2023-04-22T10:57:11;100006.41;;;10.50;78.75
60832;BME280;46665;51.558;-0.448;2023-04-22T10:59:45;100000.31;;;10.58;79.48
60832;BME280;46665;51.558;-0.448;2023-04-22T11:02:13;100006.72;;;10.81;81.13
60832;BME280;46665;51.558;-0.448;2023-04-22T11:04:39;99996.75;;;10.91;77.58
60832;BME280;46665;51.558;-0.448;2023-04-22T11:09:51;100007.19;;;11.02;72.80
60832;BME280;46665;51.558;-0.448;2023-04-22T11:15:17;100001.03;;;11.11;68.16
60832;BME280;46665;51.558;-0.448;2023-04-22T11:17:45;100007.00;;;11.13;67.59
60832;BME280;46665;51.558;-0.448;2023-04-22T11:20:13;100012.97;;;11.28;69.09
60832;BME280;46665;51.558;-0.448;2023-04-22T11:22:46;100005.69;;;11.24;66.34
60832;BME280;46665;51.558;-0.448;2023-04-22T11:25:12;100004.69;;;11.34;67.09
60832;BME280;46665;51.558;-0.448;2023-04-22T11:27:39;100008.25;;;11.48;69.47
60832;BME280;46665;51.558;-0.448;2023-04-22T11:30:10;100010.94;;;11.34;66.33
60832;BME280;46665;51.558;-0.448;2023-04-22T11:32:50;100015.16;;;11.26;66.46
60832;BME280;46665;51.558;-0.448;2023-04-22T11:35:24;100016.00;;;11.27;66.92
60832;BME280;46665;51.558;-0.448;2023-04-22T11:37:52;100012.84;;;11.34;67.34
60832;BME280;46665;51.558;-0.448;2023-04-22T11:40:21;100006.94;;;11.45;67.71
60832;BME280;46665;51.558;-0.448;2023-04-22T11:42:49;100014.50;;;11.48;69.52
60832;BME280;46665;51.558;-0.448;2023-04-22T11:45:15;100014.97;;;11.37;68.78
60832;BME280;46665;51.558;-0.448;2023-04-22T11:47:41;100024.47;;;11.39;71.10
60832;BME280;46665;51.558;-0.448;2023-04-22T11:50:09;100014.38;;;11.26;69.99
60832;BME280;46665;51.558;-0.448;2023-04-22T11:52:50;100016.47;;;11.15;70.44
60832;BME280;46665;51.558;-0.448;2023-04-22T11:55:18;100017.38;;;11.11;72.51
60832;BME280;46665;51.558;-0.448;2023-04-22T11:57:44;100018.34;;;11.01;72.81
60832;BME280;46665;51.558;-0.448;2023-04-22T12:00:13;100020.44;;;10.90;73.77
60832;BME280;46665;51.558;-0.448;2023-04-22T12:02:44;100012.66;;;10.83;75.45
60832;BME280;46665;51.558;-0.448;2023-04-22T12:05:18;100016.69;;;10.86;75.87
60832;BME280;46665;51.558;-0.448;2023-04-22T12:07:43;100015.94;;;10.99;74.77
60832;BME280;46665;51.558;-0.448;2023-04-22T12:10:22;100002.66;;;11.12;73.92
60832;BME280;46665;51.558;-0.448;2023-04-22T12:12:49;100018.59;;;11.18;73.47
60832;BME280;46665;51.558;-0.448;2023-04-22T12:15:14;100015.59;;;11.34;75.23
60832;BME280;46665;51.558;-0.448;2023-04-22T12:17:43;100022.25;;;11.41;74.13
60832;BME280;46665;51.558;-0.448;2023-04-22T12:20:12;100020.13;;;11.38;72.91
60832;BME280;46665;51.558;-0.448;2023-04-22T12:22:37;100017.91;;;11.40;74.96
60832;BME280;46665;51.558;-0.448;2023-04-22T12:25:03;100021.84;;;11.34;73.88
60832;BME280;46665;51.558;-0.448;2023-04-22T12:27:29;100023.25;;;11.18;73.66
60832;BME280;46665;51.558;-0.448;2023-04-22T12:29:56;100021.03;;;11.20;75.20
60832;BME280;46665;51.558;-0.448;2023-04-22T12:32:24;100020.94;;;11.25;74.64
60832;BME280;46665;51.558;-0.448;2023-04-22T12:34:49;100012.75;;;11.25;75.23
60832;BME280;46665;51.558;-0.448;2023-04-22T12:37:15;100014.19;;;11.22;74.64
60832;BME280;46665;51.558;-0.448;2023-04-22T12:39:42;100019.22;;;11.29;75.37
60832;BME280;46665;51.558;-0.448;2023-04-22T12:42:07;100017.31;;;11.30;73.92
60832;BME280;46665;51.558;-0.448;2023-04-22T12:44:33;100018.53;;;11.37;73.56
60832;BME280;46665;51.558;-0.448;2023-04-22T12:46:58;100014.59;;;11.43;73.51
60832;BME280;46665;51.558;-0.448;2023-04-22T12:49:24;100024.97;;;11.41;72.39
60832;BME280;46665;51.558;-0.448;2023-04-22T12:51:50;100019.00;;;11.39;73.19